createdAt,value
2019-02-20T00:01:43.935Z,95487.91
2019-02-20T00:04:13.449Z,95486.00
2019-02-20T00:07:02.323Z,95490.59
2019-02-20T00:09:31.833Z,95496.61
2019-02-20T00:12:01.311Z,95500.12
2019-02-20T00:14:30.866Z,95499.66
2019-02-20T00:17:00.361Z,95503.78
2019-02-20T00:19:29.859Z,95500.59
2019-02-20T00:21:59.353Z,95500.72
2019-02-20T00:24:28.861Z,95496.35
2019-02-20T00:26:58.351Z,95494.69
2019-02-20T00:29:27.931Z,95500.09
2019-02-20T00:31:57.504Z,95507.28
2019-02-20T00:34:27.007Z,95514.13
2019-02-20T00:36:56.499Z,95521.78
2019-02-20T00:39:26.024Z,95513.08
2019-02-20T00:41:55.553Z,95507.67
2019-02-20T00:44:29.485Z,95509.71
2019-02-20T00:47:16.528Z,95510.25
2019-02-20T00:49:46.036Z,95509.42
2019-02-20T00:55:14.932Z,95508.73
2019-02-20T00:57:44.447Z,95512.64
2019-02-20T01:00:15.586Z,95505.16
2019-02-20T01:02:45.067Z,95505.95
2019-02-20T01:05:14.751Z,95505.82
2019-02-20T01:07:44.269Z,95511.13
2019-02-20T01:10:13.801Z,95513.13
2019-02-20T01:12:43.367Z,95507.22
2019-02-20T01:15:12.964Z,95511.11
2019-02-20T01:17:42.483Z,95503.33
2019-02-20T01:20:12.126Z,95501.27
2019-02-20T01:22:41.651Z,95502.52
2019-02-20T01:25:12.395Z,95503.91
2019-02-20T01:27:41.914Z,95509.44
2019-02-20T01:30:13.255Z,95509.17
2019-02-20T01:32:42.757Z,95511.27
2019-02-20T01:35:12.497Z,95508.88
2019-02-20T01:37:42.030Z,95504.50
2019-02-20T01:40:11.530Z,95510.83
2019-02-20T01:42:41.041Z,95512.00
2019-02-20T01:45:10.533Z,95517.58
2019-02-20T01:47:40.050Z,95512.84
2019-02-20T01:50:10.265Z,95512.52
2019-02-20T01:52:39.828Z,95508.65
2019-02-20T01:55:09.787Z,95504.72
2019-02-20T01:57:39.275Z,95504.80
2019-02-20T02:00:12.548Z,95499.73
2019-02-20T02:02:42.042Z,95493.68
2019-02-20T02:05:15.430Z,95497.78
2019-02-20T02:07:42.863Z,95505.92
2019-02-20T02:10:12.447Z,95500.64
2019-02-20T02:12:41.934Z,95499.95
2019-02-20T02:15:19.988Z,95499.60
2019-02-20T02:17:42.720Z,95496.06
2019-02-20T02:20:12.238Z,95501.94
2019-02-20T02:22:41.729Z,95492.03
2019-02-20T02:25:11.370Z,95495.70
2019-02-20T02:27:40.868Z,95499.47
2019-02-20T02:30:13.891Z,95496.38
2019-02-20T02:32:44.614Z,95498.38
2019-02-20T02:35:14.114Z,95493.48
2019-02-20T02:37:43.600Z,95491.69
2019-02-20T02:40:32.443Z,95480.89
2019-02-20T02:43:21.259Z,95479.23
2019-02-20T02:46:03.523Z,95484.87
2019-02-20T02:48:33.039Z,95482.44
2019-02-20T02:51:02.540Z,95488.86
2019-02-20T02:53:32.033Z,95491.11
2019-02-20T02:56:01.517Z,95490.89
2019-02-20T02:58:31.026Z,95496.69
2019-02-20T03:01:19.898Z,95493.39
2019-02-20T03:03:49.419Z,95492.39
2019-02-20T03:06:18.911Z,95491.09
2019-02-20T03:12:22.460Z,95500.81
2019-02-20T03:14:51.959Z,95428.98
2019-02-20T03:17:21.450Z,95507.61
2019-02-20T03:19:51.026Z,95510.45
2019-02-20T03:22:20.519Z,95513.20
2019-02-20T03:24:50.062Z,95502.47
2019-02-20T03:27:38.916Z,95502.64
2019-02-20T03:30:27.771Z,95498.05
2019-02-20T03:32:57.288Z,95496.59
2019-02-20T03:35:26.800Z,95500.41
2019-02-20T03:37:56.280Z,95500.66
2019-02-20T03:40:27.057Z,95505.28
2019-02-20T03:42:56.541Z,95501.30
2019-02-20T03:45:26.051Z,95500.16
2019-02-20T03:47:55.539Z,95505.12
2019-02-20T03:50:25.074Z,95511.13
2019-02-20T03:52:55.711Z,95521.14
2019-02-20T03:55:25.219Z,95524.17
2019-02-20T03:57:54.705Z,95517.47
2019-02-20T04:00:24.214Z,95515.16
2019-02-20T04:02:53.704Z,95506.26
2019-02-20T04:05:23.938Z,95505.33
2019-02-20T04:07:53.432Z,95504.19
2019-02-20T04:10:22.940Z,95511.78
2019-02-20T04:12:52.451Z,95517.14
2019-02-20T04:15:21.943Z,95517.45
2019-02-20T04:17:52.073Z,95525.80
2019-02-20T04:20:21.598Z,95526.45
2019-02-20T04:22:51.127Z,95531.41
2019-02-20T04:25:20.664Z,95528.52
2019-02-20T04:27:50.170Z,95522.14
2019-02-20T04:30:20.259Z,95526.45
2019-02-20T04:33:09.108Z,95522.28
2019-02-20T04:35:38.620Z,95530.93
2019-02-20T04:38:08.342Z,95534.53
2019-02-20T04:40:37.847Z,95530.69
2019-02-20T04:43:07.361Z,95547.75
2019-02-20T04:45:36.885Z,95546.50
2019-02-20T04:48:06.406Z,95544.83
2019-02-20T04:50:35.962Z,95539.17
2019-02-20T04:53:05.466Z,95530.03
2019-02-20T04:55:34.961Z,95533.66
2019-02-20T04:58:19.172Z,95539.97
2019-02-20T05:00:48.754Z,95546.74
2019-02-20T05:03:37.602Z,95542.34
2019-02-20T05:06:07.091Z,95536.22
2019-02-20T05:08:36.608Z,95532.81
2019-02-20T05:11:06.152Z,95529.93
2019-02-20T05:13:35.658Z,95528.67
2019-02-20T05:16:05.761Z,95526.27
2019-02-20T05:18:54.603Z,95534.83
2019-02-20T05:21:24.119Z,95539.02
2019-02-20T05:23:53.620Z,95533.04
2019-02-20T05:26:23.107Z,95534.41
2019-02-20T05:28:52.622Z,95527.30
2019-02-20T05:31:22.132Z,95525.37
2019-02-20T05:33:51.631Z,95535.27
2019-02-20T05:36:21.181Z,95539.54
2019-02-20T05:38:50.720Z,95540.08
2019-02-20T05:41:20.242Z,95542.13
2019-02-20T05:43:49.721Z,95540.75
2019-02-20T05:46:19.262Z,95542.70
2019-02-20T05:48:50.759Z,95548.92
2019-02-20T05:51:20.014Z,95543.86
2019-02-20T05:53:49.550Z,95547.98
2019-02-20T05:56:19.119Z,95548.09
2019-02-20T05:58:48.638Z,95556.06
2019-02-20T06:01:18.134Z,95558.17
2019-02-20T06:03:47.657Z,95565.68
2019-02-20T06:06:17.168Z,95574.32
2019-02-20T06:08:46.644Z,95581.75
2019-02-20T06:11:17.043Z,95584.76
2019-02-20T06:13:46.999Z,95584.92
2019-02-20T06:16:16.495Z,95589.52
2019-02-20T06:19:17.808Z,95589.73
2019-02-20T06:22:06.632Z,95589.52
2019-02-20T06:24:43.921Z,95586.52
2019-02-20T06:27:08.014Z,95590.02
2019-02-20T06:29:37.509Z,95590.72
2019-02-20T06:32:07.045Z,95587.30
2019-02-20T06:34:55.900Z,95591.24
2019-02-20T06:37:25.409Z,95589.88
2019-02-20T06:39:54.945Z,95584.92
2019-02-20T06:42:24.430Z,95587.95
2019-02-20T06:44:54.654Z,95591.27
2019-02-20T06:47:24.143Z,95607.71
2019-02-20T06:49:53.653Z,95603.20
2019-02-20T06:52:23.148Z,95599.45
2019-02-20T06:54:54.204Z,95606.62
2019-02-20T06:57:24.120Z,95612.13
2019-02-20T07:00:33.846Z,95612.54
2019-02-20T07:03:34.588Z,95622.06
2019-02-20T07:06:20.445Z,95622.97
2019-02-20T07:09:17.979Z,95623.31
2019-02-20T07:11:55.011Z,95623.41
2019-02-20T07:15:22.559Z,95626.78
2019-02-20T07:18:28.252Z,95625.59
2019-02-20T07:21:37.979Z,95615.50
2019-02-20T07:24:31.135Z,95636.73
2019-02-20T07:27:13.757Z,95632.15
2019-02-20T07:29:44.739Z,95631.25
2019-02-20T07:32:18.053Z,95633.03
2019-02-20T07:34:47.553Z,95635.49
2019-02-20T07:37:17.038Z,95642.58
2019-02-20T07:39:46.557Z,95640.32
2019-02-20T07:42:17.104Z,95642.92
2019-02-20T07:45:26.833Z,95639.84
2019-02-20T07:47:56.318Z,95641.39
2019-02-20T07:50:25.830Z,95649.09
2019-02-20T07:53:08.155Z,95655.11
2019-02-20T07:55:37.703Z,95660.92
2019-02-20T07:58:26.539Z,95666.43
2019-02-20T08:01:15.391Z,95661.41
2019-02-20T08:03:45.000Z,95660.55
2019-02-20T08:06:14.520Z,95662.63
2019-02-20T08:08:44.004Z,95653.98
2019-02-20T08:11:13.537Z,95659.76
2019-02-20T08:13:43.028Z,95665.53
2019-02-20T08:16:12.548Z,95664.25
2019-02-20T08:18:42.035Z,95665.59
2019-02-20T08:21:11.552Z,95663.92
2019-02-20T08:23:41.074Z,95669.14
2019-02-20T08:26:10.581Z,95668.30
2019-02-20T08:28:40.077Z,95657.97
2019-02-20T08:31:09.588Z,95658.91
2019-02-20T08:33:39.077Z,95643.83
2019-02-20T08:36:08.587Z,95648.22
2019-02-20T08:38:38.096Z,95645.94
2019-02-20T08:41:07.580Z,95645.25
2019-02-20T08:43:37.082Z,95648.41
2019-02-20T08:46:06.603Z,95651.75
2019-02-20T08:48:36.159Z,95655.77
2019-02-20T08:51:05.692Z,95651.27
2019-02-20T08:53:35.188Z,95658.79
2019-02-20T08:56:05.965Z,95651.17
2019-02-20T08:58:35.458Z,95654.20
2019-02-20T09:01:05.042Z,95648.52
2019-02-20T09:03:34.586Z,95649.61
2019-02-20T09:06:04.090Z,95649.78
2019-02-20T09:08:34.497Z,95654.08
2019-02-20T09:11:03.994Z,95651.02
2019-02-20T09:13:33.493Z,95650.48
2019-02-20T09:16:03.001Z,95657.11
2019-02-20T09:18:32.496Z,95653.88
2019-02-20T09:21:02.797Z,95660.89
2019-02-20T09:23:51.654Z,95658.21
2019-02-20T09:26:34.520Z,95655.65
2019-02-20T09:29:04.075Z,95655.82
2019-02-20T09:31:33.577Z,95649.20
2019-02-20T09:34:41.456Z,95654.09
2019-02-20T09:37:10.971Z,95654.09
2019-02-20T09:39:40.490Z,95661.95
2019-02-20T09:42:29.321Z,95661.36
2019-02-20T09:44:59.165Z,95660.74
2019-02-20T09:47:28.684Z,95664.42
2019-02-20T09:49:58.172Z,95669.98
2019-02-20T09:52:27.699Z,95669.73
2019-02-20T09:54:57.219Z,95664.77
2019-02-20T09:57:26.713Z,95656.34
2019-02-20T09:59:56.231Z,95666.30
2019-02-20T10:02:25.787Z,95665.28
2019-02-20T10:04:55.298Z,95664.88
2019-02-20T10:07:24.815Z,95678.13
2019-02-20T10:09:54.307Z,95675.00
2019-02-20T10:12:23.814Z,95677.11
2019-02-20T10:14:53.316Z,95675.88
2019-02-20T10:17:22.863Z,95676.97
2019-02-20T10:19:52.350Z,95679.30
2019-02-20T10:22:21.868Z,95672.52
2019-02-20T10:24:51.362Z,95671.63
2019-02-20T10:27:20.970Z,95669.45
2019-02-20T10:29:50.463Z,95675.41
2019-02-20T10:32:19.955Z,95662.53
2019-02-20T10:34:50.724Z,95673.91
2019-02-20T10:37:20.273Z,95664.30
2019-02-20T10:39:49.784Z,95664.13
2019-02-20T10:42:19.325Z,95666.24
2019-02-20T10:44:48.810Z,95669.58
2019-02-20T10:47:19.575Z,95668.70
2019-02-20T10:49:49.078Z,95665.75
2019-02-20T10:52:18.596Z,95666.41
2019-02-20T10:54:48.090Z,95669.48
2019-02-20T10:57:17.640Z,95667.98
2019-02-20T10:59:48.398Z,95670.84
2019-02-20T11:02:18.047Z,95675.52
2019-02-20T11:04:47.570Z,95676.55
2019-02-20T11:07:17.112Z,95672.27
2019-02-20T11:09:46.603Z,95671.70
2019-02-20T11:12:17.111Z,95663.66
2019-02-20T11:14:46.639Z,95665.13
2019-02-20T11:17:16.159Z,95666.47
2019-02-20T11:19:45.681Z,95661.58
2019-02-20T11:22:15.194Z,95670.56
2019-02-20T11:24:45.662Z,95664.13
2019-02-20T11:27:15.190Z,95672.10
2019-02-20T11:29:44.706Z,95661.72
2019-02-20T11:32:14.209Z,95658.28
2019-02-20T11:34:43.782Z,95652.12
2019-02-20T11:37:13.964Z,95653.20
2019-02-20T11:39:43.485Z,95653.31
2019-02-20T11:42:13.030Z,95659.94
2019-02-20T11:44:42.566Z,95655.52
2019-02-20T11:47:12.086Z,95654.88
2019-02-20T11:49:42.042Z,95655.70
2019-02-20T11:52:11.557Z,95659.82
2019-02-20T11:54:41.061Z,95664.00
2019-02-20T11:57:10.847Z,95662.50
2019-02-20T11:59:40.374Z,95657.13
2019-02-20T12:02:10.445Z,95659.38
2019-02-20T12:04:39.942Z,95661.52
2019-02-20T12:07:09.463Z,95655.67
2019-02-20T12:09:58.307Z,95649.93
2019-02-20T12:12:27.825Z,95580.45
2019-02-20T12:14:57.330Z,95653.61
2019-02-20T12:17:26.869Z,95660.99
2019-02-20T12:19:56.435Z,95658.04
2019-02-20T12:22:25.952Z,95657.78
2019-02-20T12:24:55.463Z,95656.33
2019-02-20T12:27:25.067Z,95658.05
2019-02-20T12:29:54.566Z,95653.02
2019-02-20T12:32:24.111Z,95649.86
2019-02-20T12:34:53.606Z,95651.09
2019-02-20T12:37:25.019Z,95649.09
2019-02-20T12:39:54.380Z,95659.41
2019-02-20T12:42:23.907Z,95654.75
2019-02-20T12:44:53.429Z,95662.88
2019-02-20T12:47:22.948Z,95658.41
2019-02-20T12:49:52.474Z,95658.84
2019-02-20T12:52:21.990Z,95657.62
2019-02-20T12:54:51.504Z,95655.70
2019-02-20T12:57:21.083Z,95653.59
2019-02-20T12:59:50.574Z,95655.13
2019-02-20T13:02:20.089Z,95653.35
2019-02-20T13:04:49.587Z,95654.08
2019-02-20T13:07:19.133Z,95648.69
2019-02-20T13:09:50.154Z,95653.45
2019-02-20T13:12:19.785Z,95656.87
2019-02-20T13:14:49.994Z,95650.97
2019-02-20T13:17:19.529Z,95652.58
2019-02-20T13:19:49.027Z,95651.34
2019-02-20T13:22:18.592Z,95653.16
2019-02-20T13:24:48.106Z,95651.24
2019-02-20T13:27:22.779Z,95654.28
2019-02-20T13:29:49.586Z,95654.14
2019-02-20T13:32:19.135Z,95644.84
2019-02-20T13:34:48.631Z,95648.90
2019-02-20T13:37:18.158Z,95638.95
2019-02-20T13:39:47.656Z,95644.98
2019-02-20T13:42:17.453Z,95650.44
2019-02-20T13:44:47.010Z,95649.76
2019-02-20T13:47:16.563Z,95656.10
2019-02-20T13:49:46.400Z,95653.87
2019-02-20T13:52:35.268Z,95656.01
2019-02-20T13:55:24.241Z,95652.73
2019-02-20T13:57:53.768Z,95657.02
2019-02-20T14:00:23.264Z,95658.75
2019-02-20T14:02:52.786Z,95646.02
2019-02-20T14:05:22.577Z,95655.73
2019-02-20T14:07:52.106Z,95659.88
2019-02-20T14:10:21.603Z,95654.89
2019-02-20T14:12:51.202Z,95658.05
2019-02-20T14:15:20.702Z,95661.89
2019-02-20T14:17:50.255Z,95673.77
2019-02-20T14:20:20.229Z,95663.47
2019-02-20T14:22:50.628Z,95668.02
2019-02-20T14:25:20.116Z,95665.58
2019-02-20T14:27:49.629Z,95667.59
2019-02-20T14:30:19.234Z,95665.63
2019-02-20T14:32:48.774Z,95670.90
2019-02-20T14:35:18.920Z,95670.04
2019-02-20T14:37:48.437Z,95669.88
2019-02-20T14:40:17.939Z,95664.92
2019-02-20T14:42:47.508Z,95661.15
2019-02-20T14:45:17.268Z,95664.73
2019-02-20T14:47:47.257Z,95662.75
2019-02-20T14:50:16.746Z,95660.93
2019-02-20T14:52:46.255Z,95658.31
2019-02-20T14:55:15.759Z,95653.70
2019-02-20T14:57:45.286Z,95648.62
2019-02-20T15:00:18.386Z,95649.88
2019-02-20T15:02:47.893Z,95653.16
2019-02-20T15:05:36.905Z,95656.98
2019-02-20T15:08:06.439Z,95649.72
2019-02-20T15:10:36.037Z,95646.85
2019-02-20T15:13:05.589Z,95645.17
2019-02-20T15:15:35.080Z,95650.09
2019-02-20T15:18:04.675Z,95654.02
2019-02-20T15:20:35.586Z,95645.14
2019-02-20T15:23:05.253Z,95642.85
2019-02-20T15:25:34.775Z,95641.33
2019-02-20T15:28:04.758Z,95641.17
2019-02-20T15:30:34.316Z,95648.48
2019-02-20T15:33:03.849Z,95633.20
2019-02-20T15:35:33.379Z,95636.07
2019-02-20T15:38:02.910Z,95634.43
2019-02-20T15:40:32.419Z,95631.53
2019-02-20T15:43:01.938Z,95631.22
2019-02-20T15:45:31.449Z,95623.59
2019-02-20T15:48:00.969Z,95626.37
2019-02-20T15:50:30.500Z,95629.62
2019-02-20T15:52:59.991Z,95633.80
2019-02-20T15:55:29.526Z,95638.08
2019-02-20T15:57:59.111Z,95636.14
2019-02-20T16:00:28.610Z,95636.06
2019-02-20T16:02:58.439Z,95639.13
2019-02-20T16:05:27.937Z,95641.17
2019-02-20T16:07:57.456Z,95635.67
2019-02-20T16:10:26.987Z,95643.44
2019-02-20T16:12:56.502Z,95644.33
2019-02-20T16:15:25.988Z,95654.45
2019-02-20T16:17:55.825Z,95646.27
2019-02-20T16:20:25.336Z,95652.09
2019-02-20T16:22:54.838Z,95650.17
2019-02-20T16:25:24.333Z,95646.44
2019-02-20T16:27:53.899Z,95653.70
2019-02-20T16:30:23.410Z,95654.41
2019-02-20T16:32:54.495Z,95660.15
2019-02-20T16:35:23.990Z,95672.27
2019-02-20T16:37:54.010Z,95673.08
2019-02-20T16:40:42.870Z,95678.20
2019-02-20T16:43:24.903Z,95678.65
2019-02-20T16:45:54.390Z,95677.85
2019-02-20T16:48:23.961Z,95682.38
2019-02-20T16:50:53.448Z,95679.73
2019-02-20T16:53:23.025Z,95682.59
2019-02-20T16:55:52.560Z,95688.43
2019-02-20T16:58:22.084Z,95698.05
2019-02-20T17:00:51.691Z,95697.70
2019-02-20T17:03:40.562Z,95698.41
2019-02-20T17:06:22.850Z,95703.53
2019-02-20T17:09:30.793Z,95709.02
2019-02-20T17:12:01.507Z,95703.72
2019-02-20T17:14:31.114Z,95710.05
2019-02-20T17:17:19.943Z,95719.52
2019-02-20T17:20:29.721Z,95719.17
2019-02-20T17:22:59.287Z,95725.47
2019-02-20T17:25:28.793Z,95723.73
2019-02-20T17:28:05.564Z,95731.17
2019-02-20T17:30:29.533Z,95734.95
2019-02-20T17:32:59.161Z,95733.06
2019-02-20T17:35:28.780Z,95738.41
2019-02-20T17:37:58.263Z,95737.11
2019-02-20T17:40:47.121Z,95737.21
2019-02-20T17:46:31.020Z,95741.25
2019-02-20T17:49:00.544Z,95579.19
2019-02-20T17:51:30.052Z,95747.97
2019-02-20T17:53:59.587Z,95744.78
2019-02-20T17:56:29.073Z,95752.20
2019-02-20T17:59:17.932Z,95752.29
2019-02-20T18:01:47.425Z,95759.14
2019-02-20T18:04:18.048Z,95761.06
2019-02-20T18:06:47.534Z,95756.88
2019-02-20T18:09:17.060Z,95761.80
2019-02-20T18:11:46.582Z,95764.98
2019-02-20T18:14:16.120Z,95767.80
2019-02-20T18:17:05.679Z,95767.53
2019-02-20T18:19:35.209Z,95773.22
2019-02-20T18:22:04.744Z,95777.32
2019-02-20T18:24:34.258Z,95783.52
2019-02-20T18:27:03.802Z,95788.14
2019-02-20T18:29:33.308Z,95783.38
2019-02-20T18:32:02.813Z,95778.71
2019-02-20T18:34:32.333Z,95780.92
2019-02-20T18:37:02.309Z,95781.02
2019-02-20T18:39:31.847Z,95782.58
2019-02-20T18:42:01.317Z,95788.04
2019-02-20T18:44:30.855Z,95789.39
2019-02-20T18:47:00.371Z,95787.34
2019-02-20T18:49:30.487Z,95788.05
2019-02-20T18:51:59.991Z,95787.94
2019-02-20T18:54:29.517Z,95792.94
2019-02-20T18:56:59.078Z,95788.34
2019-02-20T18:59:28.525Z,95794.94
2019-02-20T19:01:58.654Z,95788.86
2019-02-20T19:04:28.730Z,95799.18
2019-02-20T19:06:58.211Z,95796.88
2019-02-20T19:09:27.788Z,95794.27
2019-02-20T19:12:10.717Z,95800.92
2019-02-20T19:15:14.775Z,95801.80
2019-02-20T19:17:54.720Z,95807.70
2019-02-20T19:20:41.442Z,95813.07
2019-02-20T19:23:32.042Z,95814.50
2019-02-20T19:26:20.366Z,95813.26
2019-02-20T19:29:19.617Z,95820.70
2019-02-20T19:32:14.648Z,95815.77
2019-02-20T19:35:17.000Z,95817.36
2019-02-20T19:38:09.608Z,95825.61
2019-02-20T19:41:02.096Z,95823.31
2019-02-20T19:43:48.017Z,95826.95
2019-02-20T19:47:02.568Z,95827.83
2019-02-20T19:49:45.363Z,95836.84
2019-02-20T19:52:51.146Z,95836.45
2019-02-20T19:55:49.839Z,95844.82
2019-02-20T19:58:57.764Z,95853.03
2019-02-20T20:02:04.101Z,95857.27
2019-02-20T20:04:56.639Z,95865.73
2019-02-20T20:08:01.584Z,95860.70
2019-02-20T20:11:03.998Z,95863.67
2019-02-20T20:13:43.948Z,95859.03
2019-02-20T20:17:02.647Z,95863.97
2019-02-20T20:19:54.927Z,95867.74
2019-02-20T20:23:06.273Z,95865.48
2019-02-20T20:26:18.194Z,95861.96
2019-02-20T20:29:13.348Z,95862.77
2019-02-20T20:31:56.027Z,95859.37
2019-02-20T20:34:33.042Z,95860.00
2019-02-20T20:37:10.150Z,95866.96
2019-02-20T20:39:59.029Z,95870.64
2019-02-20T20:43:01.596Z,95869.16
2019-02-20T20:45:57.826Z,95872.73
2019-02-20T20:48:52.480Z,95871.03
2019-02-20T20:51:59.439Z,95874.59
2019-02-20T20:54:39.310Z,95879.83
2019-02-20T20:58:06.829Z,95877.73
2019-02-20T21:01:36.568Z,95886.06
2019-02-20T21:04:23.870Z,95877.06
2019-02-20T21:07:51.422Z,95863.94
2019-02-20T21:10:40.204Z,95881.08
2019-02-20T21:13:37.847Z,95881.88
2019-02-20T21:16:47.572Z,95878.91
2019-02-20T21:19:49.588Z,95737.06
2019-02-20T21:22:38.308Z,95886.48
2019-02-20T21:25:27.200Z,95886.05
2019-02-20T21:28:37.279Z,95884.84
2019-02-20T21:31:30.913Z,95887.00
2019-02-20T21:34:13.824Z,95886.05
2019-02-20T21:36:50.483Z,95882.23
2019-02-20T21:39:48.270Z,95886.72
2019-02-20T21:42:34.549Z,95889.35
2019-02-20T21:45:31.469Z,95895.30
2019-02-20T21:48:24.809Z,95895.69
2019-02-20T21:51:52.308Z,95897.37
2019-02-20T21:54:44.323Z,95896.04
2019-02-20T21:57:23.937Z,95893.27
2019-02-20T22:00:04.069Z,95897.67
2019-02-20T22:02:46.942Z,95901.86
2019-02-20T22:05:26.676Z,95895.84
2019-02-20T22:08:09.025Z,95901.37
2019-02-20T22:11:09.757Z,95899.16
2019-02-20T22:14:00.324Z,95902.73
2019-02-20T22:16:46.055Z,95900.91
2019-02-20T22:19:41.134Z,95901.25
2019-02-20T22:22:39.095Z,95903.95
2019-02-20T22:25:32.531Z,95899.05
2019-02-20T22:29:00.045Z,95901.90
2019-02-20T22:32:00.681Z,95873.41
2019-02-20T22:34:49.420Z,95909.02
2019-02-20T22:37:35.290Z,95917.30
2019-02-20T22:40:33.259Z,95910.03
2019-02-20T22:43:34.322Z,95911.98
2019-02-20T22:46:26.025Z,95913.77
2019-02-20T22:49:08.497Z,95915.44
2019-02-20T22:51:48.584Z,95916.11
2019-02-20T22:55:00.317Z,95915.72
2019-02-20T22:57:40.020Z,95923.13
2019-02-20T23:01:03.403Z,95920.92
2019-02-20T23:03:55.467Z,95921.83
2019-02-20T23:06:32.820Z,95926.23
2019-02-20T23:09:18.415Z,95929.13
2019-02-20T23:12:28.136Z,95927.34
2019-02-20T23:14:58.883Z,95926.43
2019-02-20T23:17:31.158Z,95928.09
2019-02-20T23:20:00.666Z,95929.41
2019-02-20T23:22:30.164Z,95934.30
2019-02-20T23:24:59.684Z,95931.16
2019-02-20T23:27:29.191Z,95931.88
2019-02-20T23:30:18.053Z,95931.44
2019-02-20T23:33:07.005Z,95931.98
2019-02-20T23:35:36.492Z,95930.58
2019-02-20T23:38:06.074Z,95929.03
2019-02-20T23:40:35.561Z,95930.31
2019-02-20T23:43:05.201Z,95927.37
2019-02-20T23:45:34.810Z,95927.91
2019-02-20T23:48:04.392Z,95928.00
2019-02-20T23:50:33.882Z,95924.66
2019-02-20T23:53:03.403Z,95934.72
2019-02-20T23:55:32.892Z,95933.27
2019-02-20T23:58:02.384Z,95932.06
